Time;durP1;ratioP1;P1;durP2;ratioP2;P2;SDS_P1;SDS_P2;PMS_P1;PMS_P2;Temp;Humidity;BMP_temperature;BMP_pressure;BME280_temperature;BME280_humidity;BME280_pressure;Samples;Min_cycle;Max_cycle;Signal;HPM_P1;HPM_P2
2021/10/05 00:01:33;;;;;;;20.52;14.60;;;7.00;93.30;;;;;;5016252;28;20149;-86
2021/10/05 00:04:00;;;;;;;23.05;15.75;;;7.10;93.40;;;;;;5018169;28;20036;-85
2021/10/05 00:06:26;;;;;;;22.27;13.93;;;7.00;93.50;;;;;;5019584;28;20018;-85
2021/10/05 00:08:52;;;;;;;24.02;16.40;;;7.00;93.60;;;;;;5015067;28;20105;-86
2021/10/05 00:11:18;;;;;;;25.73;15.57;;;7.00;93.90;;;;;;5013978;28;20077;-86
2021/10/05 00:13:43;;;;;;;22.55;15.18;;;6.90;93.80;;;;;;5014829;28;20067;-87
2021/10/05 00:16:09;;;;;;;23.17;15.73;;;6.90;94.10;;;;;;5017201;28;20025;-86
2021/10/05 00:18:36;;;;;;;22.88;16.23;;;6.90;94.10;;;;;;5016945;28;20441;-87
2021/10/05 00:21:05;;;;;;;27.10;14.82;;;6.90;94.20;;;;;;5013795;28;20503;-86
2021/10/05 00:23:31;;;;;;;25.17;15.30;;;6.90;94.30;;;;;;5014596;28;20030;-84
2021/10/05 00:25:57;;;;;;;25.42;17.10;;;6.80;94.30;;;;;;5013623;28;20101;-84
2021/10/05 00:28:23;;;;;;;27.95;16.83;;;6.80;94.30;;;;;;5014110;28;20104;-85
2021/10/05 00:30:49;;;;;;;25.23;16.98;;;6.80;94.40;;;;;;5015338;28;20042;-84
2021/10/05 00:33:15;;;;;;;26.08;19.15;;;6.80;94.40;;;;;;5014953;28;20033;-83
2021/10/05 00:35:40;;;;;;;35.20;21.35;;;6.70;94.40;;;;;;4997751;28;20030;-84
2021/10/05 00:38:06;;;;;;;34.05;23.05;;;6.70;94.60;;;;;;5014981;28;20034;-84
2021/10/05 00:40:32;;;;;;;33.10;24.50;;;6.70;94.80;;;;;;5013988;28;20061;-84
2021/10/05 00:42:58;;;;;;;32.17;22.58;;;6.70;94.80;;;;;;5013510;28;20014;-85
2021/10/05 00:45:24;;;;;;;38.08;24.75;;;6.70;94.80;;;;;;5013756;28;20064;-85
2021/10/05 00:47:50;;;;;;;34.35;24.40;;;6.60;95.00;;;;;;4995989;28;20030;-84
2021/10/05 00:50:16;;;;;;;35.47;26.02;;;6.60;95.00;;;;;;5015533;28;20076;-83
2021/10/05 00:52:43;;;;;;;33.55;24.20;;;6.50;95.10;;;;;;5016932;28;20018;-85
2021/10/05 00:55:10;;;;;;;30.80;21.77;;;6.50;95.30;;;;;;5016892;28;20018;-85
2021/10/05 00:57:36;;;;;;;28.73;20.33;;;6.50;95.30;;;;;;5013783;28;20022;-84
2021/10/05 01:00:07;;;;;;;28.67;22.80;;;6.40;95.30;;;;;;4996085;28;20136;-84
2021/10/05 01:02:33;;;;;;;28.55;19.73;;;6.40;95.50;;;;;;5015614;28;20064;-84
2021/10/05 01:04:59;;;;;;;31.92;21.92;;;6.40;95.50;;;;;;5014390;28;20529;-84
2021/10/05 01:07:25;;;;;;;24.88;18.80;;;6.40;95.60;;;;;;5017758;28;20041;-85
2021/10/05 01:09:51;;;;;;;26.27;21.02;;;6.30;95.80;;;;;;5016417;28;20073;-85
2021/10/05 01:12:17;;;;;;;27.13;18.42;;;6.30;95.60;;;;;;5017255;28;20025;-85
2021/10/05 01:14:43;;;;;;;22.80;18.20;;;6.30;95.60;;;;;;5017846;28;20022;-85
2021/10/05 01:17:11;;;;;;;24.25;17.42;;;6.30;95.70;;;;;;5018704;28;20069;-85
2021/10/05 01:19:37;;;;;;;23.92;19.55;;;6.30;95.80;;;;;;5017878;28;20097;-84
2021/10/05 01:22:04;;;;;;;24.10;17.67;;;6.30;96.10;;;;;;4999212;28;20029;-84
2021/10/05 01:24:29;;;;;;;24.85;18.40;;;6.40;96.00;;;;;;5018127;28;20105;-85
2021/10/05 01:26:57;;;;;;;24.67;17.23;;;6.50;95.90;;;;;;5000104;28;20143;-85
2021/10/05 01:29:26;;;;;;;24.75;17.73;;;6.60;95.70;;;;;;4999994;28;20033;-86
2021/10/05 01:31:53;;;;;;;23.58;17.45;;;6.70;95.50;;;;;;5001562;28;20156;-84
2021/10/05 01:34:22;;;;;;;27.45;17.60;;;6.80;95.30;;;;;;5017187;28;20451;-84
2021/10/05 01:36:49;;;;;;;27.35;16.80;;;6.80;95.20;;;;;;4999741;28;20030;-85
2021/10/05 01:39:27;;;;;;;27.40;19.27;;;6.90;95.10;;;;;;5016925;28;20026;-85
2021/10/05 01:42:04;;;;;;;24.15;17.73;;;6.80;94.90;;;;;;5001023;28;20705;-85
2021/10/05 01:44:30;;;;;;;25.27;18.55;;;6.80;94.90;;;;;;5017738;28;20030;-85
2021/10/05 01:46:56;;;;;;;23.25;16.38;;;6.80;95.00;;;;;;5016290;28;20037;-86
2021/10/05 01:49:24;;;;;;;25.88;19.13;;;6.90;95.00;;;;;;4998639;28;20102;-86
2021/10/05 01:51:50;;;;;;;25.15;19.23;;;7.00;94.90;;;;;;5016892;28;20089;-85
2021/10/05 01:54:18;;;;;;;32.67;20.57;;;7.00;94.70;;;;;;5002085;28;20022;-85
2021/10/05 01:56:44;;;;;;;20.73;17.67;;;6.90;94.50;;;;;;5019290;28;20118;-87
2021/10/05 01:59:10;;;;;;;27.60;18.90;;;6.90;94.60;;;;;;5019209;28;20396;-86
2021/10/05 02:01:38;;;;;;;28.10;20.02;;;6.90;94.60;;;;;;5015087;28;20050;-86
2021/10/05 02:04:05;;;;;;;25.92;19.52;;;6.80;94.60;;;;;;5022442;28;20026;-85
2021/10/05 02:06:30;;;;;;;28.05;18.70;;;6.80;94.60;;;;;;5026812;28;20022;-85
2021/10/05 02:08:56;;;;;;;28.35;18.52;;;6.80;94.60;;;;;;5022774;28;20038;-85
2021/10/05 02:11:22;;;;;;;27.00;19.50;;;6.70;94.60;;;;;;5016594;28;20526;-86
2021/10/05 02:13:48;;;;;;;32.42;19.58;;;6.60;94.70;;;;;;5019585;28;20474;-85
2021/10/05 02:16:14;;;;;;;30.23;19.00;;;6.60;94.80;;;;;;5022966;28;20032;-86
2021/10/05 02:18:42;;;;;;;26.23;19.70;;;6.50;94.90;;;;;;5015478;28;20017;-83
2021/10/05 02:21:08;;;;;;;27.85;20.67;;;6.50;95.00;;;;;;5014776;28;20422;-84
2021/10/05 02:23:49;;;;;;;27.05;20.42;;;6.40;95.30;;;;;;5016404;28;20022;-83
2021/10/05 02:26:15;;;;;;;26.25;18.85;;;6.50;95.50;;;;;;5015470;28;20026;-83
2021/10/05 02:28:41;;;;;;;29.38;19.73;;;6.60;95.50;;;;;;5016349;28;20529;-81
2021/10/05 02:31:07;;;;;;;23.35;17.95;;;6.70;95.40;;;;;;5016540;28;20101;-83
2021/10/05 02:33:32;;;;;;;29.90;18.73;;;6.80;95.20;;;;;;5016835;28;20092;-84
2021/10/05 02:35:58;;;;;;;29.08;19.92;;;6.80;95.10;;;;;;5016193;28;20026;-82
2021/10/05 02:38:24;;;;;;;23.63;17.02;;;6.80;94.90;;;;;;5019288;28;20386;-83
2021/10/05 02:40:50;;;;;;;25.15;16.55;;;6.90;94.80;;;;;;5016520;28;20395;-84
2021/10/05 02:43:15;;;;;;;27.75;17.30;;;6.90;94.70;;;;;;5015730;28;20437;-85
2021/10/05 02:45:41;;;;;;;23.83;17.85;;;7.00;94.60;;;;;;5015167;28;20030;-84
2021/10/05 02:48:07;;;;;;;26.80;17.90;;;7.00;94.50;;;;;;5015127;28;20108;-83
2021/10/05 02:50:32;;;;;;;23.17;17.77;;;7.00;94.40;;;;;;5006817;28;20070;-83
2021/10/05 02:52:58;;;;;;;24.88;17.30;;;7.00;94.40;;;;;;4996535;28;20023;-84
2021/10/05 02:55:24;;;;;;;29.67;18.55;;;7.10;94.40;;;;;;4997334;28;20040;-86
2021/10/05 02:57:50;;;;;;;28.13;16.83;;;7.10;94.40;;;;;;5005670;28;20076;-87
2021/10/05 03:00:15;;;;;;;23.27;17.38;;;7.20;94.20;;;;;;4993191;28;20575;-87
2021/10/05 03:02:41;;;;;;;28.48;17.70;;;7.10;94.10;;;;;;4999521;28;20321;-87
2021/10/05 03:05:07;;;;;;;21.88;15.98;;;7.00;94.00;;;;;;4997061;28;20492;-86
2021/10/05 03:07:33;;;;;;;22.75;17.45;;;6.90;94.00;;;;;;4998286;28;20132;-87
2021/10/05 03:09:59;;;;;;;28.20;16.77;;;6.80;94.20;;;;;;4995942;28;20042;-85
2021/10/05 03:12:26;;;;;;;26.73;16.85;;;6.80;94.40;;;;;;4995837;28;20034;-86
2021/10/05 03:14:52;;;;;;;26.02;17.05;;;6.70;94.60;;;;;;4993983;28;20026;-85
2021/10/05 03:17:18;;;;;;;23.55;17.42;;;6.70;94.70;;;;;;4998219;28;20113;-85
2021/10/05 03:19:43;;;;;;;22.92;17.50;;;6.70;94.60;;;;;;5002053;28;20022;-86
2021/10/05 03:22:09;;;;;;;23.58;17.30;;;6.60;94.70;;;;;;5016729;28;20026;-85
2021/10/05 03:24:35;;;;;;;23.35;15.70;;;6.60;94.90;;;;;;5014797;28;20076;-86
2021/10/05 03:27:02;;;;;;;26.98;16.23;;;6.50;95.00;;;;;;5014972;28;20081;-88
2021/10/05 03:29:28;;;;;;;26.13;16.20;;;6.50;95.10;;;;;;4997297;28;20085;-84
2021/10/05 03:31:54;;;;;;;30.30;19.27;;;6.40;95.20;;;;;;5014987;28;20165;-85
2021/10/05 03:34:21;;;;;;;34.30;20.08;;;6.40;95.30;;;;;;5014414;28;20022;-87
2021/10/05 03:36:47;;;;;;;;;;;6.50;95.70;;;;;;4997954;28;20590;-86
2021/10/05 03:39:13;;;;;;;25.33;17.05;;;6.50;95.50;;;;;;5008645;28;19909;-85
2021/10/05 03:41:39;;;;;;;24.58;16.23;;;6.50;95.60;;;;;;5016082;28;20026;-87
2021/10/05 03:44:04;;;;;;;26.85;18.02;;;6.50;95.60;;;;;;5017199;28;20475;-86
2021/10/05 03:46:30;;;;;;;23.77;17.33;;;6.50;95.60;;;;;;5015094;28;20030;-86
2021/10/05 03:48:56;;;;;;;25.52;17.17;;;6.60;95.60;;;;;;5015155;28;20064;-85
2021/10/05 03:51:22;;;;;;;38.13;22.60;;;6.60;95.60;;;;;;5018224;28;20041;-84
2021/10/05 03:53:47;;;;;;;31.45;21.30;;;6.70;95.60;;;;;;5024098;28;20029;-85
2021/10/05 03:56:17;;;;;;;27.88;17.50;;;6.70;95.60;;;;;;5016373;28;20029;-86
2021/10/05 03:58:43;;;;;;;29.45;19.75;;;6.70;95.70;;;;;;5002382;28;20022;-83
2021/10/05 04:01:09;;;;;;;22.05;16.10;;;6.70;95.60;;;;;;4998685;28;20504;-85
2021/10/05 04:03:35;;;;;;;17.55;13.40;;;6.80;95.50;;;;;;4995580;28;20026;-85
2021/10/05 04:06:00;;;;;;;23.60;15.98;;;6.80;95.30;;;;;;5004515;28;20038;-85
2021/10/05 04:08:28;;;;;;;26.27;15.18;;;6.80;95.30;;;;;;4996199;28;20357;-83
2021/10/05 04:10:53;;;;;;;18.38;14.25;;;6.90;95.20;;;;;;5014908;28;20030;-85
2021/10/05 04:13:19;;;;;;;20.73;15.05;;;6.90;94.90;;;;;;5014113;28;20084;-84
2021/10/05 04:15:45;;;;;;;20.95;15.68;;;6.80;94.90;;;;;;4996507;28;20022;-87
2021/10/05 04:18:11;;;;;;;29.58;19.52;;;6.90;94.90;;;;;;5014126;28;20033;-87
2021/10/05 04:20:37;;;;;;;22.38;15.25;;;6.90;94.90;;;;;;4996904;28;20041;-85
2021/10/05 04:23:03;;;;;;;23.98;14.65;;;6.90;94.80;;;;;;5015970;28;20030;-87
2021/10/05 04:25:29;;;;;;;20.63;15.07;;;6.90;94.90;;;;;;5016651;28;20034;-86
2021/10/05 04:27:54;;;;;;;19.20;14.95;;;7.00;94.80;;;;;;5017010;28;20500;-90
2021/10/05 04:30:21;;;;;;;24.58;14.00;;;7.00;94.80;;;;;;4996905;28;20450;-87
2021/10/05 04:32:47;;;;;;;22.75;14.52;;;7.10;94.80;;;;;;5014506;28;20018;-87
2021/10/05 04:35:12;;;;;;;20.90;13.93;;;7.20;94.60;;;;;;5014452;28;20029;-89
2021/10/05 04:37:38;;;;;;;22.50;14.02;;;7.30;94.40;;;;;;5016146;28;20100;-87
2021/10/05 04:40:07;;;;;;;19.77;14.32;;;7.30;94.30;;;;;;5015162;28;20018;-86
2021/10/05 04:42:33;;;;;;;17.73;13.63;;;7.30;94.30;;;;;;5014355;28;20026;-86
2021/10/05 04:44:59;;;;;;;19.30;15.15;;;7.40;94.30;;;;;;5017872;28;20018;-85
2021/10/05 04:47:25;;;;;;;22.23;13.68;;;7.50;94.30;;;;;;5022167;28;20494;-86
2021/10/05 04:49:51;;;;;;;20.08;12.82;;;7.60;94.20;;;;;;4997339;28;20033;-86
2021/10/05 04:52:17;;;;;;;21.38;14.95;;;7.70;94.10;;;;;;4994236;28;20387;-87
2021/10/05 04:54:42;;;;;;;18.25;13.68;;;7.70;93.80;;;;;;4995231;28;20365;-85
2021/10/05 04:57:09;;;;;;;18.60;12.73;;;7.80;93.60;;;;;;4995792;28;20027;-85
2021/10/05 04:59:35;;;;;;;19.05;12.52;;;7.80;93.50;;;;;;4995665;28;20026;-87
2021/10/05 05:02:00;;;;;;;20.00;14.10;;;7.70;93.50;;;;;;4994515;28;20102;-87
2021/10/05 05:04:26;;;;;;;18.77;13.32;;;7.80;93.70;;;;;;4995441;28;20519;-86
2021/10/05 05:06:52;;;;;;;22.17;13.68;;;7.90;93.70;;;;;;4994394;28;20034;-86
2021/10/05 05:09:18;;;;;;;19.95;13.35;;;8.00;93.80;;;;;;4995253;28;20115;-85
2021/10/05 05:11:44;;;;;;;18.20;11.85;;;8.00;93.40;;;;;;4977490;28;20046;-86
2021/10/05 05:14:13;;;;;;;17.63;10.85;;;8.10;93.30;;;;;;4995649;28;20101;-85
2021/10/05 05:16:41;;;;;;;20.63;12.38;;;8.20;93.10;;;;;;4998033;28;20479;-85
2021/10/05 05:19:07;;;;;;;16.38;12.23;;;8.20;92.90;;;;;;5000830;28;20103;-85
2021/10/05 05:21:34;;;;;;;19.60;10.97;;;8.30;92.90;;;;;;4996656;28;20033;-87
2021/10/05 05:24:00;;;;;;;17.60;10.45;;;8.30;92.80;;;;;;5015208;28;20053;-89
2021/10/05 05:26:26;;;;;;;17.48;11.23;;;8.30;92.70;;;;;;5015331;28;20072;-89
2021/10/05 05:28:52;;;;;;;18.13;12.68;;;8.30;92.70;;;;;;5015103;28;20030;-89
2021/10/05 05:31:18;;;;;;;23.85;13.30;;;8.40;92.60;;;;;;5015343;28;20085;-86
2021/10/05 05:33:44;;;;;;;23.92;13.02;;;8.30;92.50;;;;;;5015667;28;20034;-85
2021/10/05 05:36:10;;;;;;;16.25;12.18;;;8.40;92.50;;;;;;5014883;28;20110;-85
2021/10/05 05:38:36;;;;;;;20.75;11.57;;;8.40;92.50;;;;;;5015192;28;20032;-85
2021/10/05 05:41:02;;;;;;;19.35;13.48;;;8.40;92.60;;;;;;5012980;28;20430;-86
2021/10/05 05:43:28;;;;;;;16.67;12.35;;;8.50;92.40;;;;;;5013795;28;20030;-86
2021/10/05 05:45:54;;;;;;;19.52;13.25;;;8.40;92.20;;;;;;4996257;28;20026;-87
2021/10/05 05:48:20;;;;;;;20.20;12.20;;;8.30;92.40;;;;;;5013352;28;20029;-86
2021/10/05 05:50:45;;;;;;;17.33;11.98;;;8.20;92.50;;;;;;5014552;28;20037;-86
2021/10/05 05:53:14;;;;;;;20.27;11.88;;;8.20;92.80;;;;;;5013459;28;20030;-85
2021/10/05 05:55:40;;;;;;;17.38;12.60;;;8.20;93.00;;;;;;5008937;28;20077;-85
2021/10/05 05:58:11;;;;;;;17.30;12.20;;;8.30;92.90;;;;;;4984550;28;20026;-85
2021/10/05 06:00:37;;;;;;;18.50;11.57;;;8.20;92.60;;;;;;4970847;28;20055;-85
2021/10/05 06:03:03;;;;;;;22.45;12.93;;;8.20;92.80;;;;;;4941459;29;20046;-85
2021/10/05 06:05:29;;;;;;;24.05;12.40;;;8.30;93.30;;;;;;4958550;29;20350;-87
2021/10/05 06:07:55;;;;;;;14.68;11.73;;;8.30;93.10;;;;;;4959520;29;20031;-86
2021/10/05 06:10:21;;;;;;;23.92;13.85;;;8.40;92.70;;;;;;4958511;29;20047;-86
2021/10/05 06:12:46;;;;;;;19.25;13.13;;;8.40;92.70;;;;;;4958113;29;20054;-86
2021/10/05 06:15:17;;;;;;;23.75;12.63;;;8.50;92.80;;;;;;4957398;29;20024;-87
2021/10/05 06:17:45;;;;;;;21.98;13.77;;;8.60;92.40;;;;;;4958713;29;20151;-88
2021/10/05 06:20:15;;;;;;;20.10;12.85;;;8.60;92.70;;;;;;4965141;28;20026;-87
2021/10/05 06:22:42;;;;;;;24.40;12.68;;;8.60;92.30;;;;;;4979918;28;20030;-87
2021/10/05 06:25:11;;;;;;;18.92;13.52;;;8.70;92.40;;;;;;4977732;28;20019;-84
2021/10/05 06:27:37;;;;;;;29.33;13.70;;;8.70;92.20;;;;;;4977911;28;20452;-88
2021/10/05 06:30:06;;;;;;;17.70;11.95;;;8.70;92.30;;;;;;4977801;28;20157;-86
2021/10/05 06:32:32;;;;;;;16.48;12.10;;;8.70;92.00;;;;;;4976813;28;20484;-84
2021/10/05 06:34:58;;;;;;;32.10;16.52;;;8.70;92.20;;;;;;4975967;28;20027;-89
2021/10/05 06:37:23;;;;;;;20.30;13.25;;;8.80;92.20;;;;;;4980069;28;20195;-93
2021/10/05 06:39:49;;;;;;;23.40;14.07;;;8.90;91.80;;;;;;4980695;28;20050;-88
2021/10/05 06:42:15;;;;;;;23.80;12.90;;;8.90;91.90;;;;;;4980152;28;20030;-90
2021/10/05 06:44:41;;;;;;;20.42;13.05;;;9.00;91.80;;;;;;4985669;28;20025;-89
2021/10/05 06:47:08;;;;;;;24.30;14.00;;;9.00;91.70;;;;;;4986637;28;20027;-90
2021/10/05 06:49:34;;;;;;;23.45;12.52;;;9.00;91.80;;;;;;4982416;28;20106;-89
2021/10/05 06:52:02;;;;;;;22.90;14.30;;;9.10;92.20;;;;;;4977169;28;20061;-86
2021/10/05 06:54:28;;;;;;;21.55;13.00;;;9.20;91.50;;;;;;4988045;28;20142;-90
2021/10/05 06:56:54;;;;;;;24.85;14.02;;;9.30;91.30;;;;;;4977781;28;20457;-86
2021/10/05 06:59:20;;;;;;;20.80;13.70;;;9.40;91.00;;;;;;4972506;28;20850;-86
2021/10/05 07:01:46;;;;;;;20.02;13.52;;;9.50;91.10;;;;;;4979570;28;20427;-85
2021/10/05 07:04:12;;;;;;;25.17;13.75;;;9.60;90.90;;;;;;4997949;28;20032;-89
2021/10/05 07:06:41;;;;;;;25.02;13.38;;;9.90;91.00;;;;;;5005529;28;20479;-87
2021/10/05 07:09:08;;;;;;;21.00;13.93;;;10.10;90.50;;;;;;5001099;28;20030;-88
2021/10/05 07:11:34;;;;;;;22.85;14.23;;;10.30;89.80;;;;;;4988332;28;20181;-85
2021/10/05 07:14:01;;;;;;;18.63;13.97;;;10.40;89.20;;;;;;5002815;28;20057;-88
2021/10/05 07:16:27;;;;;;;28.50;13.63;;;10.40;88.90;;;;;;4982437;28;20030;-88
2021/10/05 07:18:53;;;;;;;23.42;14.05;;;10.40;89.20;;;;;;4998138;28;20026;-88
2021/10/05 07:21:22;;;;;;;13.52;11.27;;;10.40;89.50;;;;;;5016512;28;20064;-88
2021/10/05 07:23:51;;;;;;;15.82;9.93;;;10.50;89.60;;;;;;5017883;28;20018;-91
2021/10/05 07:26:19;;;;;;;14.45;10.68;;;10.50;88.10;;;;;;5017115;28;20022;-87
2021/10/05 07:28:46;;;;;;;17.05;11.05;;;10.50;88.10;;;;;;4999714;28;20026;-88
2021/10/05 07:31:13;;;;;;;14.07;10.63;;;10.60;87.80;;;;;;5017572;28;20037;-87
2021/10/05 07:33:39;;;;;;;15.98;10.35;;;10.90;87.20;;;;;;4998106;28;20479;-89
2021/10/05 07:36:05;;;;;;;16.58;10.20;;;11.10;86.70;;;;;;4998529;28;20033;-88
2021/10/05 07:38:31;;;;;;;17.80;11.48;;;11.40;85.80;;;;;;5016749;28;20033;-89
2021/10/05 07:40:57;;;;;;;26.88;15.88;;;11.60;84.50;;;;;;5017034;28;20030;-85
2021/10/05 07:43:24;;;;;;;17.95;11.93;;;11.60;83.10;;;;;;5016888;28;20476;-86
2021/10/05 07:45:52;;;;;;;25.40;12.35;;;11.40;83.20;;;;;;5016114;28;20057;-89
2021/10/05 07:48:18;;;;;;;22.92;11.82;;;11.20;84.00;;;;;;5015749;28;20041;-88
2021/10/05 07:50:45;;;;;;;17.23;11.23;;;11.40;84.40;;;;;;5001246;28;20049;-88
2021/10/05 07:53:11;;;;;;;17.17;12.35;;;11.60;83.80;;;;;;5015440;28;20486;-89
2021/10/05 07:55:37;;;;;;;17.15;11.15;;;11.70;83.00;;;;;;5016425;28;20061;-87
2021/10/05 07:58:03;;;;;;;14.63;10.25;;;11.70;83.00;;;;;;5016496;28;20048;-87
2021/10/05 08:00:29;;;;;;;15.80;12.07;;;11.80;82.00;;;;;;5000500;28;20054;-85
2021/10/05 08:02:55;;;;;;;27.38;14.32;;;11.80;82.20;;;;;;5000693;28;20375;-86
2021/10/05 08:05:21;;;;;;;15.90;11.07;;;11.80;82.30;;;;;;4996369;28;20026;-88
2021/10/05 08:07:57;;;;;;;20.92;10.48;;;11.90;82.10;;;;;;4995553;28;20022;-88
2021/10/05 08:10:23;;;;;;;19.45;12.07;;;11.90;81.80;;;;;;4978490;28;20109;-88
2021/10/05 08:12:49;;;;;;;14.90;11.57;;;11.90;81.70;;;;;;4995378;28;20098;-88
2021/10/05 08:15:16;;;;;;;19.90;11.48;;;12.10;81.00;;;;;;4996158;28;20054;-88
2021/10/05 08:17:42;;;;;;;18.25;11.75;;;12.00;80.30;;;;;;4994801;28;20361;-90
2021/10/05 08:20:10;;;;;;;17.10;11.75;;;12.10;80.80;;;;;;4996289;28;20057;-88
2021/10/05 08:22:36;;;;;;;18.35;12.60;;;12.20;80.20;;;;;;4997388;28;20026;-88
2021/10/05 08:25:03;;;;;;;18.70;12.23;;;12.20;79.50;;;;;;4995666;28;20030;-89
2021/10/05 08:27:30;;;;;;;17.08;11.45;;;12.30;79.60;;;;;;4997902;28;20050;-88
2021/10/05 08:29:56;;;;;;;16.25;11.80;;;12.40;79.60;;;;;;4997287;28;20034;-88
2021/10/05 08:32:22;;;;;;;14.43;11.27;;;12.60;79.00;;;;;;4977491;28;20080;-88
2021/10/05 08:34:48;;;;;;;23.35;13.32;;;12.90;78.10;;;;;;4995488;28;20531;-87
2021/10/05 08:37:14;;;;;;;13.55;10.30;;;13.00;77.30;;;;;;4995400;28;20026;-88
2021/10/05 08:39:40;;;;;;;16.73;11.65;;;13.00;76.70;;;;;;4978658;28;20037;-90
2021/10/05 08:42:06;;;;;;;13.40;11.25;;;13.00;76.80;;;;;;4996482;28;20025;-87
2021/10/05 08:44:34;;;;;;;24.23;12.20;;;13.20;76.50;;;;;;4978001;28;20117;-88
2021/10/05 08:47:00;;;;;;;20.20;12.80;;;13.30;76.10;;;;;;4977476;28;20018;-88
2021/10/05 08:49:26;;;;;;;16.15;9.93;;;13.50;75.90;;;;;;4995603;28;20118;-88
2021/10/05 08:51:55;;;;;;;19.02;11.63;;;13.50;74.80;;;;;;4978154;28;20077;-87
2021/10/05 08:54:23;;;;;;;15.75;12.43;;;13.40;75.00;;;;;;4977579;28;20057;-88
2021/10/05 08:56:49;;;;;;;16.63;10.95;;;13.40;75.10;;;;;;4978460;28;20030;-87
2021/10/05 08:59:16;;;;;;;13.00;10.07;;;13.50;74.50;;;;;;5001475;28;20036;-86
2021/10/05 09:01:42;;;;;;;12.95;10.25;;;13.50;74.30;;;;;;4979923;28;20046;-87
2021/10/05 09:04:08;;;;;;;15.95;10.55;;;13.60;73.90;;;;;;5001960;28;20037;-88
2021/10/05 09:06:38;;;;;;;15.15;10.27;;;13.60;73.70;;;;;;4998146;28;20161;-91
2021/10/05 09:09:09;;;;;;;15.48;10.02;;;13.60;73.90;;;;;;4978377;28;20038;-90
2021/10/05 09:11:47;;;;;;;15.60;10.85;;;13.70;73.60;;;;;;4980645;28;20047;-87
2021/10/05 09:14:14;;;;;;;;;;;13.80;73.50;;;;;;4997803;28;20032;-89
2021/10/05 09:16:43;;;;;;;18.00;11.35;;;13.90;74.10;;;;;;4998206;28;19906;-87
2021/10/05 09:19:14;;;;;;;15.38;10.68;;;14.00;73.60;;;;;;4999793;28;20038;-89
2021/10/05 09:21:50;;;;;;;19.15;12.55;;;14.30;72.50;;;;;;4983050;28;20022;-89
2021/10/05 09:24:25;;;;;;;16.73;11.07;;;14.30;71.90;;;;;;4979872;28;20041;-88
2021/10/05 09:27:00;;;;;;;13.40;10.10;;;14.30;70.80;;;;;;4998297;28;20022;-89
2021/10/05 09:29:35;;;;;;;15.85;9.95;;;14.20;71.10;;;;;;4998450;28;20392;-89
2021/10/05 09:32:07;;;;;;;11.55;9.25;;;13.90;71.50;;;;;;5001274;28;20464;-88
2021/10/05 09:34:55;;;;;;;11.95;9.20;;;13.80;72.20;;;;;;5000187;28;20117;-88
2021/10/05 09:37:32;;;;;;;10.82;7.85;;;14.00;72.10;;;;;;5004087;28;20038;-88
2021/10/05 09:40:12;;;;;;;13.32;8.18;;;14.20;71.10;;;;;;4999715;28;20026;-89
2021/10/05 09:42:44;;;;;;;13.38;8.18;;;14.40;70.80;;;;;;4998320;28;20022;-87
2021/10/05 09:45:11;;;;;;;11.10;7.05;;;14.50;70.00;;;;;;4981508;28;20030;-87
2021/10/05 09:47:39;;;;;;;15.57;7.13;;;14.60;69.60;;;;;;4982370;28;20461;-88
2021/10/05 09:50:30;;;;;;;9.57;7.28;;;14.70;69.40;;;;;;4982132;28;20041;-87
2021/10/05 09:52:59;;;;;;;10.45;7.32;;;14.70;68.60;;;;;;4980250;28;20038;-87
2021/10/05 09:55:27;;;;;;;14.73;7.68;;;14.70;68.60;;;;;;4982537;28;20018;-87
2021/10/05 09:57:54;;;;;;;11.90;8.55;;;14.70;68.90;;;;;;4980705;28;20046;-88
2021/10/05 10:00:22;;;;;;;12.67;7.97;;;14.70;68.80;;;;;;4953874;29;20134;-87
2021/10/05 10:02:50;;;;;;;12.63;9.40;;;14.80;69.00;;;;;;4959040;29;20122;-89
2021/10/05 10:05:22;;;;;;;13.30;9.45;;;15.00;68.10;;;;;;4959911;29;20503;-88
2021/10/05 10:07:50;;;;;;;14.20;10.13;;;15.20;68.20;;;;;;4960907;29;20043;-88
2021/10/05 10:10:27;;;;;;;12.32;8.73;;;15.30;66.90;;;;;;4947553;29;20098;-84
2021/10/05 10:12:57;;;;;;;10.50;7.97;;;15.40;66.80;;;;;;4944057;29;20032;-88
2021/10/05 10:15:32;;;;;;;11.23;8.30;;;15.40;66.70;;;;;;4948164;29;20060;-88
2021/10/05 10:18:08;;;;;;;15.60;8.38;;;15.30;66.70;;;;;;4963953;29;20145;-88
2021/10/05 10:20:36;;;;;;;12.48;8.70;;;15.20;66.80;;;;;;4968933;28;20062;-88
2021/10/05 10:23:14;;;;;;;10.75;8.05;;;15.00;66.70;;;;;;4961993;28;20391;-87
2021/10/05 10:25:58;;;;;;;11.77;7.70;;;14.70;67.00;;;;;;4978961;28;20042;-87
2021/10/05 10:28:30;;;;;;;13.68;7.07;;;14.50;67.30;;;;;;4961445;28;20027;-87
2021/10/05 10:30:58;;;;;;;10.73;7.57;;;14.20;67.90;;;;;;4961662;28;20039;-88
2021/10/05 10:33:28;;;;;;;8.93;7.47;;;14.10;68.30;;;;;;4979087;28;20023;-89
2021/10/05 10:35:58;;;;;;;9.70;7.20;;;13.90;68.60;;;;;;4960996;28;20137;-87
2021/10/05 10:38:30;;;;;;;9.23;7.07;;;13.90;69.00;;;;;;4960644;28;20026;-86
2021/10/05 10:40:58;;;;;;;14.80;9.30;;;13.80;69.30;;;;;;4959543;28;20030;-87
2021/10/05 10:43:25;;;;;;;;;;;13.70;69.40;;;;;;4979741;28;20027;-87
2021/10/05 10:45:58;;;;;;;7.93;6.78;;;13.60;69.60;;;;;;4979289;28;19906;-87
2021/10/05 10:48:25;;;;;;;11.25;8.18;;;13.50;69.40;;;;;;4978333;28;20026;-86
2021/10/05 10:50:51;;;;;;;10.43;7.20;;;13.30;69.50;;;;;;4980399;28;20097;-88
2021/10/05 10:53:17;;;;;;;11.55;7.45;;;13.20;70.20;;;;;;4969934;28;20054;-88
2021/10/05 10:55:46;;;;;;;12.35;6.97;;;13.20;70.20;;;;;;4977177;28;20384;-88
2021/10/05 10:58:13;;;;;;;13.10;8.82;;;13.30;70.30;;;;;;4963780;28;20030;-88
2021/10/05 11:00:49;;;;;;;11.87;6.80;;;13.30;70.20;;;;;;4989259;28;20058;-88
2021/10/05 11:03:25;;;;;;;10.80;7.60;;;13.30;70.30;;;;;;4995732;28;20058;-86
2021/10/05 11:05:51;;;;;;;10.10;7.20;;;13.20;70.60;;;;;;4996136;28;20483;-88
2021/10/05 11:08:17;;;;;;;11.45;7.43;;;13.30;70.70;;;;;;4999798;28;20029;-86
2021/10/05 11:10:42;;;;;;;10.98;7.80;;;13.20;70.50;;;;;;4997408;28;20039;-85
2021/10/05 11:13:09;;;;;;;8.98;7.35;;;13.10;71.10;;;;;;4998086;28;20098;-87
2021/10/05 11:15:46;;;;;;;10.88;7.18;;;13.10;71.30;;;;;;4999591;28;20026;-87
2021/10/05 11:18:16;;;;;;;9.68;7.28;;;13.10;71.20;;;;;;4996099;28;20078;-86
2021/10/05 11:20:47;;;;;;;11.25;7.28;;;13.10;70.80;;;;;;4990805;28;20094;-88
2021/10/05 11:23:15;;;;;;;12.23;7.95;;;13.10;70.90;;;;;;4971605;28;20023;-86
2021/10/05 11:25:55;;;;;;;28.77;15.57;;;12.90;70.90;;;;;;4983699;28;20381;-88
2021/10/05 11:28:28;;;;;;;9.45;5.95;;;12.80;71.50;;;;;;4979105;28;20038;-86
2021/10/05 11:30:56;;;;;;;12.27;7.65;;;12.70;71.50;;;;;;4980408;28;20030;-87
2021/10/05 11:33:37;;;;;;;14.13;6.65;;;12.70;72.00;;;;;;4978530;28;20395;-87
2021/10/05 11:36:20;;;;;;;8.90;6.97;;;12.70;71.80;;;;;;4981851;28;20105;-88
2021/10/05 11:38:49;;;;;;;11.57;6.68;;;12.60;72.20;;;;;;4965020;28;20062;-85
2021/10/05 11:41:16;;;;;;;14.20;7.75;;;12.60;72.10;;;;;;4986078;28;20030;-87
2021/10/05 11:43:48;;;;;;;7.60;6.80;;;12.60;72.70;;;;;;4984291;28;20027;-86
2021/10/05 11:46:23;;;;;;;11.90;6.90;;;12.60;72.60;;;;;;4961405;28;20443;-86
2021/10/05 11:48:56;;;;;;;9.23;7.97;;;12.60;73.30;;;;;;4986474;28;20025;-85
2021/10/05 11:51:24;;;;;;;11.63;6.90;;;12.70;72.80;;;;;;4996286;28;20561;-86
2021/10/05 11:53:52;;;;;;;14.32;7.32;;;12.80;72.50;;;;;;4998184;28;20080;-86
2021/10/05 11:56:21;;;;;;;8.55;7.00;;;12.80;72.00;;;;;;4997408;28;20023;-86
2021/10/05 11:58:55;;;;;;;10.70;7.75;;;12.90;71.80;;;;;;4995494;28;20031;-86
2021/10/05 12:01:29;;;;;;;9.98;7.68;;;12.90;72.00;;;;;;4997691;28;20145;-87
2021/10/05 12:04:21;;;;;;;10.02;6.05;;;13.00;71.80;;;;;;4996391;28;20029;-87
2021/10/05 12:06:59;;;;;;;8.52;6.60;;;12.90;71.50;;;;;;4985382;28;20399;-87
2021/10/05 12:09:26;;;;;;;10.55;7.65;;;12.80;71.80;;;;;;4979217;28;20027;-86
2021/10/05 12:11:58;;;;;;;11.73;7.57;;;12.70;72.20;;;;;;4993989;28;20043;-88
2021/10/05 12:14:29;;;;;;;13.63;7.28;;;12.70;72.50;;;;;;4994871;28;20137;-86
2021/10/05 12:17:01;;;;;;;11.13;7.90;;;12.60;72.50;;;;;;4995825;28;20383;-87
2021/10/05 12:19:36;;;;;;;9.13;6.30;;;12.50;72.70;;;;;;4997539;28;20026;-87
2021/10/05 12:22:06;;;;;;;12.13;7.30;;;12.50;72.70;;;;;;4957242;29;20210;-88
2021/10/05 12:24:46;;;;;;;9.93;7.38;;;12.40;72.70;;;;;;4938956;29;20043;-88
2021/10/05 12:27:18;;;;;;;10.95;6.65;;;12.30;73.50;;;;;;4955935;29;20067;-87
2021/10/05 12:29:48;;;;;;;12.55;6.65;;;12.30;73.10;;;;;;4954167;29;20062;-86
2021/10/05 12:32:14;;;;;;;9.82;5.95;;;12.20;73.60;;;;;;4954562;29;20584;-87
2021/10/05 12:34:41;;;;;;;12.20;7.53;;;12.10;73.50;;;;;;4955985;29;20077;-89
2021/10/05 12:37:08;;;;;;;11.65;6.85;;;12.20;73.70;;;;;;4956097;29;20035;-88
2021/10/05 12:39:35;;;;;;;13.43;7.47;;;12.30;73.70;;;;;;4955349;29;20070;-87